createdAt,value
2022-12-18T00:01:21.932Z,100811.19
2022-12-18T00:03:48.675Z,100805.88
2022-12-18T00:06:16.400Z,100805.31
2022-12-18T00:08:43.482Z,100815.03
2022-12-18T00:11:14.660Z,100811.75
2022-12-18T00:13:42.116Z,100800.88
2022-12-18T00:16:11.921Z,100814.84
2022-12-18T00:18:40.504Z,100810.28
2022-12-18T00:21:09.897Z,100823.94
2022-12-18T00:23:37.766Z,100828.69
2022-12-18T00:26:07.045Z,100838.56
2022-12-18T00:28:34.271Z,100828.44
2022-12-18T00:31:09.631Z,100838.56
2022-12-18T00:33:37.305Z,100842.28
2022-12-18T00:36:15.842Z,100837.06
2022-12-18T00:38:42.935Z,100853.75
2022-12-18T00:41:11.384Z,100853.81
2022-12-18T00:43:39.058Z,100853.94
2022-12-18T00:46:06.729Z,100857.69
2022-12-18T00:48:33.712Z,100849.84
2022-12-18T00:51:00.285Z,100842.66
2022-12-18T00:53:26.794Z,100834.00
2022-12-18T00:55:53.300Z,100838.25
2022-12-18T00:58:19.975Z,100852.09
2022-12-18T01:00:46.651Z,100852.56
2022-12-18T01:03:16.195Z,100857.47
2022-12-18T01:05:43.283Z,100870.53
2022-12-18T01:08:10.105Z,100854.69
2022-12-18T01:10:36.716Z,100858.44
2022-12-18T01:13:03.279Z,100862.53
2022-12-18T01:15:29.892Z,100857.25
2022-12-18T01:17:56.536Z,100866.53
2022-12-18T01:20:23.097Z,100872.84
2022-12-18T01:22:49.594Z,100868.50
2022-12-18T01:25:16.163Z,100874.00
2022-12-18T01:27:42.698Z,100864.16
2022-12-18T01:30:09.670Z,100873.56
2022-12-18T01:32:36.234Z,100885.88
2022-12-18T01:35:02.959Z,100886.34
2022-12-18T01:37:29.460Z,100881.06
2022-12-18T01:39:56.552Z,100886.94
2022-12-18T01:42:23.144Z,100881.75
2022-12-18T01:45:06.640Z,100883.19
2022-12-18T01:47:39.085Z,100888.00
2022-12-18T01:50:16.078Z,100892.56
2022-12-18T01:52:46.103Z,100900.53
2022-12-18T01:55:15.004Z,100900.19
2022-12-18T01:57:42.752Z,100910.84
2022-12-18T02:00:20.973Z,100911.06
2022-12-18T02:02:48.457Z,100912.94
2022-12-18T02:05:19.808Z,100914.69
2022-12-18T02:08:11.493Z,100917.16
2022-12-18T02:10:46.970Z,100919.16
2022-12-18T02:13:29.603Z,100920.19
2022-12-18T02:16:18.160Z,100931.53
2022-12-18T02:18:51.236Z,100936.59
2022-12-18T02:21:35.094Z,100933.31
2022-12-18T02:24:13.528Z,100932.22
2022-12-18T02:26:48.713Z,100939.72
2022-12-18T02:29:19.657Z,100946.97
2022-12-18T02:31:52.908Z,100948.13
2022-12-18T02:34:23.719Z,100955.88
2022-12-18T02:36:52.543Z,100961.44
2022-12-18T02:39:22.854Z,100956.97
2022-12-18T02:41:49.810Z,100957.47
2022-12-18T02:44:16.466Z,100974.06
2022-12-18T02:46:49.784Z,100977.47
2022-12-18T02:49:18.898Z,100977.47
2022-12-18T02:51:54.036Z,100977.00
2022-12-18T02:54:29.428Z,100981.13
2022-12-18T02:56:58.991Z,100974.84
2022-12-18T02:59:54.859Z,100977.59
2022-12-18T03:03:04.133Z,100980.28
2022-12-18T03:05:42.877Z,100987.66
2022-12-18T03:08:28.447Z,100999.31
2022-12-18T03:10:54.907Z,101003.53
2022-12-18T03:13:28.034Z,100993.59
2022-12-18T03:15:57.905Z,100993.88
2022-12-18T03:18:50.160Z,100997.53
2022-12-18T03:21:20.996Z,100991.91
2022-12-18T03:23:50.651Z,101000.25
2022-12-18T03:26:20.907Z,101002.03
2022-12-18T03:28:53.868Z,101001.53
2022-12-18T03:31:24.148Z,101011.03
2022-12-18T03:33:56.416Z,100999.53
2022-12-18T03:36:23.823Z,100998.41
2022-12-18T03:38:51.121Z,101004.50
2022-12-18T03:41:32.090Z,100999.72
2022-12-18T03:44:20.217Z,101003.25
2022-12-18T03:46:55.589Z,101008.44
2022-12-18T03:49:42.372Z,101020.47
2022-12-18T03:52:17.673Z,101016.63
2022-12-18T03:54:46.514Z,101016.91
2022-12-18T03:57:18.277Z,101015.72
2022-12-18T03:59:46.254Z,101018.63
2022-12-18T04:02:13.559Z,101020.72
2022-12-18T04:04:42.039Z,101021.53
2022-12-18T04:07:08.865Z,101023.28
2022-12-18T04:09:39.868Z,101021.69
2022-12-18T04:12:09.251Z,101017.59
2022-12-18T04:14:36.630Z,101026.72
2022-12-18T04:17:04.110Z,101033.78
2022-12-18T04:19:30.773Z,101024.97
2022-12-18T04:21:57.317Z,101030.16
2022-12-18T04:24:23.863Z,101028.50
2022-12-18T04:26:50.398Z,101035.09
2022-12-18T04:29:17.075Z,101039.81
2022-12-18T04:31:43.664Z,101042.84
2022-12-18T04:34:10.161Z,101043.69
2022-12-18T04:36:36.656Z,101038.06
2022-12-18T04:39:03.202Z,101043.41
2022-12-18T04:41:29.728Z,101051.31
2022-12-18T04:43:56.279Z,101048.69
2022-12-18T04:46:22.943Z,101050.31
2022-12-18T04:48:49.536Z,101059.09
2022-12-18T04:51:16.087Z,101064.34
2022-12-18T04:53:43.022Z,101066.97
2022-12-18T04:56:12.328Z,101057.31
2022-12-18T04:58:40.598Z,101064.56
2022-12-18T05:01:08.586Z,101071.38
2022-12-18T05:03:37.087Z,101071.06
2022-12-18T05:06:05.352Z,101075.25
2022-12-18T05:08:32.370Z,101060.94
2022-12-18T05:11:03.920Z,101068.06
2022-12-18T05:13:30.745Z,101067.53
2022-12-18T05:15:57.418Z,101082.59
2022-12-18T05:18:25.234Z,101090.34
2022-12-18T05:20:52.725Z,101077.72
2022-12-18T05:23:19.753Z,101072.88
2022-12-18T05:25:54.769Z,101083.91
2022-12-18T05:28:21.913Z,101081.44
2022-12-18T05:30:52.689Z,101086.81
2022-12-18T05:33:20.512Z,101084.97
2022-12-18T05:35:52.663Z,101088.47
2022-12-18T05:38:20.407Z,101092.59
2022-12-18T05:40:48.645Z,101087.06
2022-12-18T05:43:20.903Z,101088.91
2022-12-18T05:45:48.850Z,101085.78
2022-12-18T05:48:16.112Z,101097.94
2022-12-18T05:50:46.460Z,101094.34
2022-12-18T05:53:15.325Z,101099.50
2022-12-18T05:55:42.971Z,101103.78
2022-12-18T05:58:10.820Z,101101.97
2022-12-18T06:00:42.598Z,101099.41
2022-12-18T06:03:11.000Z,101094.19
2022-12-18T06:05:42.832Z,101100.81
2022-12-18T06:08:09.941Z,101108.97
2022-12-18T06:10:36.748Z,101108.06
2022-12-18T06:13:03.660Z,101102.44
2022-12-18T06:15:30.145Z,101104.34
2022-12-18T06:17:56.652Z,101118.69
2022-12-18T06:20:23.616Z,101115.41
2022-12-18T06:22:50.597Z,101121.50
2022-12-18T06:25:17.232Z,101128.44
2022-12-18T06:27:44.132Z,101132.25
2022-12-18T06:30:11.600Z,101141.06
2022-12-18T06:32:38.396Z,101135.69
2022-12-18T06:35:05.366Z,101139.81
2022-12-18T06:37:32.522Z,101143.50
2022-12-18T06:39:59.153Z,101145.72
2022-12-18T06:42:26.026Z,101146.03
2022-12-18T06:44:52.733Z,101150.06
2022-12-18T06:47:19.849Z,101151.16
2022-12-18T06:49:46.413Z,101153.53
2022-12-18T06:52:12.959Z,101154.66
2022-12-18T06:54:39.502Z,101159.84
2022-12-18T06:57:06.028Z,101164.97
2022-12-18T06:59:32.669Z,101180.19
2022-12-18T07:01:59.364Z,101178.09
2022-12-18T07:04:31.315Z,101185.56
2022-12-18T07:06:58.542Z,101191.72
2022-12-18T07:09:25.439Z,101187.91
2022-12-18T07:11:52.744Z,101194.47
2022-12-18T07:14:19.282Z,101201.63
2022-12-18T07:16:45.831Z,101199.72
2022-12-18T07:19:12.472Z,101202.13
2022-12-18T07:21:39.026Z,101209.13
2022-12-18T07:24:06.192Z,101208.63
2022-12-18T07:26:32.791Z,101207.88
2022-12-18T07:28:59.644Z,101214.53
2022-12-18T07:31:27.337Z,101212.56
2022-12-18T07:33:54.281Z,101215.41
2022-12-18T07:36:21.260Z,101236.19
2022-12-18T07:38:49.098Z,101241.09
2022-12-18T07:41:16.082Z,101240.16
2022-12-18T07:43:43.373Z,101239.16
2022-12-18T07:46:11.825Z,101240.44
2022-12-18T07:48:40.662Z,101251.78
2022-12-18T07:51:08.064Z,101239.69
2022-12-18T07:53:36.811Z,101231.88
2022-12-18T07:58:54.864Z,101256.22
2022-12-18T08:01:21.687Z,101255.66
2022-12-18T08:03:48.351Z,101259.19
2022-12-18T08:06:16.026Z,101274.38
2022-12-18T08:08:43.287Z,101274.38
2022-12-18T08:11:09.872Z,101279.66
2022-12-18T08:13:36.690Z,101263.25
2022-12-18T08:16:07.074Z,101277.22
2022-12-18T08:18:35.358Z,101278.81
2022-12-18T08:21:13.424Z,101265.84
2022-12-18T08:23:43.040Z,101273.22
2022-12-18T08:26:11.485Z,101271.34
2022-12-18T08:28:38.493Z,101272.16
2022-12-18T08:31:05.515Z,101277.19
2022-12-18T08:33:33.000Z,101280.84
2022-12-18T08:36:00.632Z,101286.25
2022-12-18T08:38:27.367Z,101276.22
2022-12-18T08:41:02.230Z,101278.69
2022-12-18T08:44:01.478Z,101283.72
2022-12-18T08:46:35.005Z,101287.41
2022-12-18T08:49:01.938Z,101287.16
2022-12-18T08:51:29.496Z,101283.44
2022-12-18T08:53:56.063Z,101285.19
2022-12-18T08:56:22.772Z,101293.41
2022-12-18T08:58:53.255Z,101291.00
2022-12-18T09:01:20.476Z,101280.94
2022-12-18T09:03:48.489Z,101284.91
2022-12-18T09:06:16.898Z,101277.25
2022-12-18T09:08:46.979Z,101286.78
2022-12-18T09:11:16.558Z,101286.78
2022-12-18T09:13:43.331Z,101300.75
2022-12-18T09:16:10.699Z,101313.38
2022-12-18T09:18:37.417Z,101309.75
2022-12-18T09:21:16.020Z,101304.84
2022-12-18T09:23:42.692Z,101305.16
2022-12-18T09:26:09.232Z,101308.84
2022-12-18T09:28:36.220Z,101306.47
2022-12-18T09:31:10.517Z,101302.88
2022-12-18T09:33:37.588Z,101290.56
2022-12-18T09:36:07.662Z,101299.25
2022-12-18T09:38:35.712Z,101292.84
2022-12-18T09:41:36.465Z,101286.09
2022-12-18T09:44:29.313Z,101288.47
2022-12-18T09:47:06.047Z,101295.38
2022-12-18T09:49:37.578Z,101292.44
2022-12-18T09:52:12.622Z,101288.75
2022-12-18T09:54:43.027Z,101279.69
2022-12-18T09:57:19.505Z,101270.94
2022-12-18T09:59:52.864Z,101268.84
2022-12-18T10:02:22.683Z,101275.78
2022-12-18T10:05:13.730Z,101274.56
2022-12-18T10:07:59.079Z,101273.69
2022-12-18T10:10:41.118Z,101269.00
2022-12-18T10:13:18.200Z,101272.28
2022-12-18T10:16:11.906Z,101254.97
2022-12-18T10:18:51.143Z,101262.50
2022-12-18T10:21:22.835Z,101255.75
2022-12-18T10:24:09.635Z,101249.66
2022-12-18T10:26:36.550Z,101251.81
2022-12-18T10:29:11.882Z,101252.84
2022-12-18T10:31:38.637Z,101250.91
2022-12-18T10:34:05.298Z,101258.63
2022-12-18T10:36:31.934Z,101262.22
2022-12-18T10:39:17.258Z,101260.56
2022-12-18T10:41:43.927Z,101265.53
2022-12-18T10:44:18.742Z,101257.78
2022-12-18T10:46:49.236Z,101249.50
2022-12-18T10:49:35.780Z,101242.72
2022-12-18T10:52:17.055Z,101243.28
2022-12-18T10:54:53.113Z,101245.59
2022-12-18T10:57:33.128Z,101242.59
2022-12-18T11:00:14.373Z,101233.91
2022-12-18T11:02:41.460Z,101231.44
2022-12-18T11:05:37.848Z,101240.72
2022-12-18T11:08:04.768Z,101232.25
2022-12-18T11:10:37.880Z,101225.72
2022-12-18T11:13:11.970Z,101230.78
2022-12-18T11:15:41.691Z,101236.72
2022-12-18T11:18:37.313Z,101228.53
2022-12-18T11:21:06.814Z,101225.25
2022-12-18T11:23:34.599Z,101225.16
2022-12-18T11:26:04.095Z,101219.66
2022-12-18T11:28:37.160Z,101221.66
2022-12-18T11:31:18.023Z,101217.34
2022-12-18T11:34:30.144Z,101226.47
2022-12-18T11:37:00.649Z,101227.53
2022-12-18T11:39:41.409Z,101224.00
2022-12-18T11:42:21.503Z,101221.72
2022-12-18T11:44:55.281Z,101228.84
2022-12-18T11:47:22.089Z,101227.44
2022-12-18T11:49:52.911Z,101213.09
2022-12-18T11:52:22.254Z,101216.63
2022-12-18T11:54:54.006Z,101216.06
2022-12-18T11:57:37.072Z,101210.47
2022-12-18T12:00:22.282Z,101203.66
2022-12-18T12:03:22.332Z,101204.34
2022-12-18T12:06:05.728Z,101208.59
2022-12-18T12:08:41.297Z,101196.19
2022-12-18T12:11:19.049Z,101196.53
2022-12-18T12:14:16.724Z,101184.03
2022-12-18T12:17:15.695Z,101190.09
2022-12-18T12:20:06.372Z,101192.50
2022-12-18T12:22:50.522Z,101188.75
2022-12-18T12:25:22.716Z,101189.50
2022-12-18T12:28:04.519Z,101178.88
2022-12-18T12:30:49.820Z,101181.59
2022-12-18T12:33:49.240Z,101187.00
2022-12-18T12:36:27.739Z,101189.78
2022-12-18T12:38:58.752Z,101186.03
2022-12-18T12:41:50.013Z,101188.28
2022-12-18T12:44:23.337Z,101190.88
2022-12-18T12:46:53.196Z,101188.13
2022-12-18T12:49:22.943Z,101187.81
2022-12-18T12:52:07.313Z,101190.59
2022-12-18T12:54:36.210Z,101184.47
2022-12-18T12:57:11.955Z,101185.59
2022-12-18T13:00:07.432Z,101187.75
2022-12-18T13:03:28.133Z,101180.25
2022-12-18T13:06:01.594Z,101182.72
2022-12-18T13:08:33.269Z,101191.34
2022-12-18T13:11:20.063Z,101188.22
2022-12-18T13:13:51.973Z,101199.63
2022-12-18T13:16:24.789Z,101197.66
2022-12-18T13:18:55.277Z,101197.56
2022-12-18T13:21:28.022Z,101206.69
2022-12-18T13:23:56.653Z,101203.97
2022-12-18T13:26:29.073Z,101209.31
2022-12-18T13:28:58.453Z,101200.63
2022-12-18T13:31:31.940Z,101209.31
2022-12-18T13:34:30.790Z,101218.09
2022-12-18T13:37:32.699Z,101201.78
2022-12-18T13:39:59.412Z,101210.16
2022-12-18T13:42:57.783Z,101211.44
2022-12-18T13:45:40.207Z,101206.69
2022-12-18T13:48:17.125Z,101202.00
2022-12-18T13:50:44.276Z,101209.50
2022-12-18T13:53:22.697Z,101222.19
2022-12-18T13:55:50.662Z,101208.00
2022-12-18T13:58:17.396Z,101212.53
2022-12-18T14:00:45.560Z,101213.25
2022-12-18T14:03:22.549Z,101212.28
2022-12-18T14:06:05.669Z,101216.88
2022-12-18T14:08:42.253Z,101238.25
2022-12-18T14:11:20.976Z,101238.41
2022-12-18T14:13:48.373Z,101238.31
2022-12-18T14:16:17.739Z,101234.88
2022-12-18T14:18:53.567Z,101239.56
2022-12-18T14:21:24.410Z,101240.78
2022-12-18T14:24:09.465Z,101238.47
2022-12-18T14:26:36.039Z,101239.50
2022-12-18T14:29:22.689Z,101248.56
2022-12-18T14:32:13.345Z,101245.69
2022-12-18T14:34:41.731Z,101249.25
2022-12-18T14:37:12.126Z,101258.03
2022-12-18T14:39:38.949Z,101258.81
2022-12-18T14:42:05.573Z,101257.94
2022-12-18T14:44:44.177Z,101260.22
2022-12-18T14:47:18.741Z,101263.38
2022-12-18T14:49:45.655Z,101269.50
2022-12-18T14:52:27.360Z,101270.41
2022-12-18T14:54:54.196Z,101262.59
2022-12-18T14:57:27.852Z,101258.63
2022-12-18T14:59:54.441Z,101268.69
2022-12-18T15:02:27.589Z,101266.06
2022-12-18T15:05:08.465Z,101267.88
2022-12-18T15:07:44.205Z,101266.75
2022-12-18T15:10:15.402Z,101263.56
2022-12-18T15:12:43.619Z,101271.16
2022-12-18T15:15:35.256Z,101273.56
2022-12-18T15:18:03.497Z,101274.88
2022-12-18T15:20:39.705Z,101274.31
2022-12-18T15:23:13.640Z,101271.16
2022-12-18T15:25:40.212Z,101269.13
2022-12-18T15:28:21.056Z,101268.47
2022-12-18T15:31:17.717Z,101263.88
2022-12-18T15:34:01.670Z,101267.59
2022-12-18T15:36:28.200Z,101272.09
2022-12-18T15:39:04.200Z,101259.44
2022-12-18T15:41:37.460Z,101270.84
2022-12-18T15:44:27.190Z,101271.84
2022-12-18T15:46:53.701Z,101274.69
2022-12-18T15:49:20.392Z,101271.84
2022-12-18T15:51:52.929Z,101275.09
2022-12-18T15:54:39.423Z,101271.75
2022-12-18T15:57:24.233Z,101278.47
2022-12-18T15:59:57.510Z,101292.53
2022-12-18T16:02:25.111Z,101288.81
2022-12-18T16:04:53.232Z,101297.47
2022-12-18T16:07:22.902Z,101302.19
2022-12-18T16:09:52.236Z,101304.88
2022-12-18T16:12:25.166Z,101301.13
2022-12-18T16:14:51.959Z,101300.28
2022-12-18T16:17:18.619Z,101300.72
2022-12-18T16:19:45.424Z,101295.97
2022-12-18T16:22:27.767Z,101293.16
2022-12-18T16:24:55.667Z,101291.22
2022-12-18T16:27:23.256Z,101293.44
2022-12-18T16:29:50.105Z,101296.53
2022-12-18T16:32:19.453Z,101296.22
2022-12-18T16:34:46.928Z,101291.75
2022-12-18T16:37:15.889Z,101298.38
2022-12-18T16:39:43.152Z,101295.16
2022-12-18T16:42:17.931Z,101304.28
2022-12-18T16:44:45.287Z,101294.00
2022-12-18T16:47:14.893Z,101301.50
2022-12-18T16:49:42.206Z,101298.19
2022-12-18T16:52:08.825Z,101294.75
2022-12-18T16:54:36.744Z,101299.25
2022-12-18T16:57:05.334Z,101299.38
2022-12-18T16:59:35.306Z,101306.78
2022-12-18T17:02:06.227Z,101308.00
2022-12-18T17:04:33.920Z,101305.03
2022-12-18T17:07:00.504Z,101302.59
2022-12-18T17:09:27.084Z,101295.31
2022-12-18T17:11:54.570Z,101295.28
2022-12-18T17:14:23.609Z,101296.53
2022-12-18T17:17:07.460Z,101285.13
2022-12-18T17:19:37.216Z,101291.69
2022-12-18T17:22:04.891Z,101294.97
2022-12-18T17:24:34.822Z,101290.47
2022-12-18T17:27:02.860Z,101293.81
2022-12-18T17:29:29.397Z,101287.56
2022-12-18T17:31:55.937Z,101278.34
2022-12-18T17:34:24.342Z,101273.53
2022-12-18T17:36:51.050Z,101287.16
2022-12-18T17:39:20.036Z,101288.88
2022-12-18T17:41:47.444Z,101287.19
2022-12-18T17:44:14.633Z,101293.06
2022-12-18T17:46:41.925Z,101302.66
2022-12-18T17:49:09.380Z,101295.22
2022-12-18T17:51:35.935Z,101296.41
2022-12-18T17:54:02.513Z,101295.16
2022-12-18T17:56:29.091Z,101294.41
2022-12-18T17:58:55.684Z,101304.34
2022-12-18T18:01:25.121Z,101302.41
2022-12-18T18:03:53.787Z,101299.25
2022-12-18T18:06:20.736Z,101308.19
2022-12-18T18:08:48.106Z,101304.16
2022-12-18T18:11:37.567Z,101303.53
2022-12-18T18:14:07.154Z,101313.09
2022-12-18T18:16:46.002Z,101316.13
2022-12-18T18:19:17.819Z,101311.84
2022-12-18T18:21:46.457Z,101308.91
2022-12-18T18:24:15.544Z,101306.94
2022-12-18T18:26:42.117Z,101307.69
2022-12-18T18:29:15.780Z,101303.69
2022-12-18T18:31:42.860Z,101304.50
2022-12-18T18:34:15.416Z,101304.31
2022-12-18T18:36:42.141Z,101308.22
2022-12-18T18:39:09.214Z,101304.84
2022-12-18T18:41:36.979Z,101294.47
2022-12-18T18:44:03.763Z,101300.88
2022-12-18T18:46:30.353Z,101301.38
2022-12-18T18:48:56.904Z,101302.19
2022-12-18T18:51:23.912Z,101294.47
2022-12-18T18:53:52.277Z,101300.28
2022-12-18T18:56:56.576Z,101304.31
2022-12-18T18:59:10.319Z,101303.25
2022-12-18T19:01:37.069Z,101311.88
2022-12-18T19:04:04.173Z,101307.94
2022-12-18T19:06:31.271Z,101304.72
2022-12-18T19:09:01.370Z,101299.31
2022-12-18T19:11:46.697Z,101312.69
2022-12-18T19:14:14.868Z,101308.59
2022-12-18T19:16:42.770Z,101309.69
2022-12-18T19:19:09.639Z,101313.28
2022-12-18T19:21:38.142Z,101301.69
2022-12-18T19:24:06.063Z,101309.56
2022-12-18T19:26:32.645Z,101295.31
2022-12-18T19:29:04.224Z,101304.84
2022-12-18T19:31:35.479Z,101296.63
2022-12-18T19:34:03.893Z,101294.00
2022-12-18T19:36:31.283Z,101302.19
2022-12-18T19:39:00.730Z,101295.16
2022-12-18T19:41:31.287Z,101298.75
2022-12-18T19:43:59.564Z,101299.16
2022-12-18T19:46:26.170Z,101290.97
2022-12-18T19:48:52.908Z,101291.53
2022-12-18T19:51:26.133Z,101299.91
2022-12-18T19:53:58.433Z,101293.50
2022-12-18T19:56:28.676Z,101307.03
2022-12-18T19:58:55.794Z,101309.00
2022-12-18T20:01:24.378Z,101321.09
2022-12-18T20:03:52.751Z,101305.97
2022-12-18T20:06:26.765Z,101307.78
2022-12-18T20:09:00.666Z,101312.72
2022-12-18T20:11:29.642Z,101312.03
2022-12-18T20:13:57.379Z,101313.09
2022-12-18T20:16:24.031Z,101318.91
2022-12-18T20:18:50.845Z,101312.72
2022-12-18T20:21:18.913Z,101313.31
2022-12-18T20:23:46.071Z,101314.41
2022-12-18T20:26:12.963Z,101323.66
2022-12-18T20:28:40.625Z,101316.91
2022-12-18T20:31:10.407Z,101321.72
2022-12-18T20:33:37.738Z,101321.44
2022-12-18T20:36:10.530Z,101318.91
2022-12-18T20:38:38.992Z,101312.16
2022-12-18T20:41:16.388Z,101317.97
2022-12-18T20:43:44.005Z,101308.25
2022-12-18T20:46:13.124Z,101304.19
2022-12-18T20:48:43.768Z,101299.06
2022-12-18T20:51:16.985Z,101291.31
2022-12-18T20:53:44.436Z,101301.69
2022-12-18T20:56:22.780Z,101299.56
2022-12-18T20:58:53.669Z,101304.31
2022-12-18T21:01:22.856Z,101297.78
2022-12-18T21:03:50.451Z,101297.66
2022-12-18T21:06:19.218Z,101292.94
2022-12-18T21:08:46.133Z,101296.47
2022-12-18T21:11:40.471Z,101290.47
2022-12-18T21:14:15.976Z,101298.13
2022-12-18T21:16:43.958Z,101294.84
2022-12-18T21:19:16.409Z,101294.13
2022-12-18T21:21:43.925Z,101288.03
2022-12-18T21:24:11.616Z,101294.72
2022-12-18T21:26:44.914Z,101295.75
2022-12-18T21:29:15.420Z,101294.22
2022-12-18T21:31:42.894Z,101286.38
2022-12-18T21:34:14.605Z,101283.78
2022-12-18T21:36:41.158Z,101290.72
2022-12-18T21:39:08.291Z,101289.28
2022-12-18T21:41:53.534Z,101283.31
2022-12-18T21:44:22.621Z,101283.22
2022-12-18T21:46:55.830Z,101275.25
2022-12-18T21:49:26.847Z,101269.13
2022-12-18T21:51:56.249Z,101264.09
2022-12-18T21:54:23.586Z,101269.13
2022-12-18T21:56:53.962Z,101264.09
2022-12-18T21:59:32.288Z,101272.28
2022-12-18T22:02:01.518Z,101263.47
2022-12-18T22:04:28.594Z,101265.19
2022-12-18T22:06:56.231Z,101275.50
2022-12-18T22:09:25.260Z,101273.13
2022-12-18T22:11:52.352Z,101277.34
2022-12-18T22:14:19.252Z,101276.16
2022-12-18T22:16:45.953Z,101276.56
2022-12-18T22:19:14.782Z,101286.16
2022-12-18T22:21:45.513Z,101268.81
2022-12-18T22:24:16.333Z,101274.50
2022-12-18T22:26:43.132Z,101275.09
2022-12-18T22:29:36.707Z,101278.66
2022-12-18T22:32:05.041Z,101274.09
2022-12-18T22:34:36.327Z,101274.06
2022-12-18T22:37:03.456Z,101271.94
2022-12-18T22:39:30.233Z,101267.06
2022-12-18T22:41:58.186Z,101260.84
2022-12-18T22:44:27.857Z,101255.53
2022-12-18T22:47:05.965Z,101255.63
2022-12-18T22:49:34.866Z,101244.97
2022-12-18T22:52:02.200Z,101246.97
2022-12-18T22:54:28.854Z,101251.75
2022-12-18T22:56:55.548Z,101251.16
2022-12-18T22:59:23.279Z,101245.31
2022-12-18T23:01:52.984Z,101239.19
2022-12-18T23:04:36.024Z,101253.25
2022-12-18T23:07:04.406Z,101247.13
2022-12-18T23:09:31.096Z,101245.41
2022-12-18T23:11:57.616Z,101245.09
2022-12-18T23:14:24.150Z,101240.34
2022-12-18T23:16:50.799Z,101238.16
2022-12-18T23:19:19.627Z,101232.31
2022-12-18T23:21:46.357Z,101235.28
2022-12-18T23:24:12.956Z,101236.56
2022-12-18T23:26:39.503Z,101235.16
2022-12-18T23:29:06.181Z,101238.22
2022-12-18T23:31:38.500Z,101234.72
2022-12-18T23:34:06.295Z,101227.19
2022-12-18T23:36:43.523Z,101226.28
2022-12-18T23:39:17.190Z,101231.66
2022-12-18T23:41:55.923Z,101216.78
2022-12-18T23:44:22.519Z,101232.25
2022-12-18T23:46:49.129Z,101224.16
2022-12-18T23:49:15.706Z,101225.19
2022-12-18T23:51:42.278Z,101212.94
2022-12-18T23:54:10.395Z,101205.56
2022-12-18T23:56:36.923Z,101201.19
2022-12-18T23:59:03.549Z,101213.25
